Clifford, North Dakota
Current Conditions -  °F | °C
As of 7:35 AM on Thursday 30 Oct 2014 (Local Time) from KBAC Reporting Station
Unknown Precip Unknown Precip  
Wind Chill: 25°   Ceiling: 1200
Heat Index: 36°   Visibility: 9mi
Dew Point: 36°   Wind: 17mph
Humidity: 100%   Direction: 20°NNE
Pressure: 30.1"   Gusts: 26mph
Location:  47.35°N, 97.41°W
Report Text: KBAC 301235Z AUTO 02015G23KT 9SM UP FEW006 BKN012 OVC018 02/02 A3010 RMK AO2
Loading
Personal Weather Stations






























Interactive Weather Map
Tropical Storm Tracking
New forecast layout! Learn more

10-Day Weather Forecast

Advertisements
Track Severe Weather on mobile